sensor_id;sensor_type;location;lat;lon;timestamp;pressure;altitude;pressure_sealevel;temperature;humidity
62617;BME280;48692;51.190;6.808;2022-07-06T00:01:19;102215.19;;;24.22;51.71
62617;BME280;48692;51.190;6.808;2022-07-06T00:03:45;102211.69;;;24.21;52.30
62617;BME280;48692;51.190;6.808;2022-07-06T00:06:11;102214.38;;;24.20;51.94
62617;BME280;48692;51.190;6.808;2022-07-06T00:08:37;102216.22;;;24.18;52.43
62617;BME280;48692;51.190;6.808;2022-07-06T00:11:03;102214.50;;;24.17;52.08
62617;BME280;48692;51.190;6.808;2022-07-06T00:13:29;102213.66;;;24.16;52.35
62617;BME280;48692;51.190;6.808;2022-07-06T00:15:55;102212.84;;;24.14;52.55
62617;BME280;48692;51.190;6.808;2022-07-06T00:18:20;102210.22;;;24.13;52.22
62617;BME280;48692;51.190;6.808;2022-07-06T00:20:46;102202.28;;;24.13;52.51
62617;BME280;48692;51.190;6.808;2022-07-06T00:23:11;102210.34;;;24.10;52.26
62617;BME280;48692;51.190;6.808;2022-07-06T00:25:36;102211.25;;;24.08;52.64
62617;BME280;48692;51.190;6.808;2022-07-06T00:28:02;102213.91;;;24.08;52.70
62617;BME280;48692;51.190;6.808;2022-07-06T00:30:28;102214.81;;;24.07;52.39
62617;BME280;48692;51.190;6.808;2022-07-06T00:32:53;102201.56;;;24.07;52.32
62617;BME280;48692;51.190;6.808;2022-07-06T00:35:19;102206.06;;;24.05;52.55
62617;BME280;48692;51.190;6.808;2022-07-06T00:37:44;102200.81;;;24.04;52.36
62617;BME280;48692;51.190;6.808;2022-07-06T00:40:10;102197.28;;;24.03;52.88
62617;BME280;48692;51.190;6.808;2022-07-06T00:42:40;102212.34;;;24.03;52.46
62617;BME280;48692;51.190;6.808;2022-07-06T00:45:07;102210.63;;;24.02;52.72
62617;BME280;48692;51.190;6.808;2022-07-06T00:47:35;102213.28;;;24.02;52.54
62617;BME280;48692;51.190;6.808;2022-07-06T00:50:02;102210.66;;;24.00;52.59
62617;BME280;48692;51.190;6.808;2022-07-06T00:52:45;102214.22;;;23.99;52.52
62617;BME280;48692;51.190;6.808;2022-07-06T00:55:18;102213.38;;;23.97;52.56
62617;BME280;48692;51.190;6.808;2022-07-06T00:57:46;102218.69;;;23.97;52.77
62617;BME280;48692;51.190;6.808;2022-07-06T01:00:16;102216.13;;;23.94;52.79
62617;BME280;48692;51.190;6.808;2022-07-06T01:02:43;102218.78;;;23.94;52.56
62617;BME280;48692;51.190;6.808;2022-07-06T01:05:11;102219.72;;;23.93;52.64
62617;BME280;48692;51.190;6.808;2022-07-06T01:07:44;102223.28;;;23.92;52.82
62617;BME280;48692;51.190;6.808;2022-07-06T01:10:12;102220.63;;;23.92;52.47
62617;BME280;48692;51.190;6.808;2022-07-06T01:12:41;102224.19;;;23.91;52.90
62617;BME280;48692;51.190;6.808;2022-07-06T01:15:14;102222.47;;;23.90;52.40
62617;BME280;48692;51.190;6.808;2022-07-06T01:17:42;102215.44;;;23.89;52.54
62617;BME280;48692;51.190;6.808;2022-07-06T01:20:12;102215.50;;;23.87;52.75
62617;BME280;48692;51.190;6.808;2022-07-06T01:22:47;102220.84;;;23.86;52.98
62617;BME280;48692;51.190;6.808;2022-07-06T01:25:14;102214.63;;;23.87;52.63
62617;BME280;48692;51.190;6.808;2022-07-06T01:27:41;102220.00;;;23.85;52.51
62617;BME280;48692;51.190;6.808;2022-07-06T01:30:13;102223.56;;;23.84;52.35
62617;BME280;48692;51.190;6.808;2022-07-06T01:32:41;102222.69;;;23.84;52.58
62617;BME280;48692;51.190;6.808;2022-07-06T01:35:11;102222.69;;;23.84;52.54
62617;BME280;48692;51.190;6.808;2022-07-06T01:37:38;102215.66;;;23.83;53.09
62617;BME280;48692;51.190;6.808;2022-07-06T01:40:06;102219.25;;;23.82;53.02
62617;BME280;48692;51.190;6.808;2022-07-06T01:42:33;102228.97;;;23.81;52.76
62617;BME280;48692;51.190;6.808;2022-07-06T01:44:59;102218.34;;;23.81;53.11
62617;BME280;48692;51.190;6.808;2022-07-06T01:47:25;102215.78;;;23.80;52.66
62617;BME280;48692;51.190;6.808;2022-07-06T01:49:50;102214.03;;;23.78;53.02
62617;BME280;48692;51.190;6.808;2022-07-06T01:52:16;102213.16;;;23.78;52.63
62617;BME280;48692;51.190;6.808;2022-07-06T01:54:42;102206.13;;;23.77;52.91
62617;BME280;48692;51.190;6.808;2022-07-06T01:57:08;102207.97;;;23.75;53.15
62617;BME280;48692;51.190;6.808;2022-07-06T01:59:33;102212.34;;;23.76;52.99
62617;BME280;48692;51.190;6.808;2022-07-06T02:01:59;102212.41;;;23.74;52.91
62617;BME280;48692;51.190;6.808;2022-07-06T02:04:24;102208.03;;;23.73;52.87
62617;BME280;48692;51.190;6.808;2022-07-06T02:06:50;102206.25;;;23.74;52.67
62617;BME280;48692;51.190;6.808;2022-07-06T02:09:16;102204.50;;;23.73;52.79
62617;BME280;48692;51.190;6.808;2022-07-06T02:11:41;102211.72;;;23.69;52.91
62617;BME280;48692;51.190;6.808;2022-07-06T02:14:07;102216.09;;;23.70;53.09
62617;BME280;48692;51.190;6.808;2022-07-06T02:16:33;102218.78;;;23.69;52.97
62617;BME280;48692;51.190;6.808;2022-07-06T02:18:58;102215.22;;;23.70;53.21
62617;BME280;48692;51.190;6.808;2022-07-06T02:21:24;102207.31;;;23.68;53.27
62617;BME280;48692;51.190;6.808;2022-07-06T02:23:49;102219.69;;;23.68;53.24
62617;BME280;48692;51.190;6.808;2022-07-06T02:26:15;102217.09;;;23.66;53.12
62617;BME280;48692;51.190;6.808;2022-07-06T02:28:41;102212.72;;;23.65;52.92
62617;BME280;48692;51.190;6.808;2022-07-06T02:31:07;102220.69;;;23.65;52.84
62617;BME280;48692;51.190;6.808;2022-07-06T02:33:32;102209.25;;;23.63;52.59
62617;BME280;48692;51.190;6.808;2022-07-06T02:35:58;102212.84;;;23.62;53.12
62617;BME280;48692;51.190;6.808;2022-07-06T02:38:23;102206.66;;;23.61;53.18
62617;BME280;48692;51.190;6.808;2022-07-06T02:40:48;102205.81;;;23.61;53.22
62617;BME280;48692;51.190;6.808;2022-07-06T02:43:14;102197.88;;;23.59;53.32
62617;BME280;48692;51.190;6.808;2022-07-06T02:45:39;102203.19;;;23.59;53.28
62617;BME280;48692;51.190;6.808;2022-07-06T02:48:05;102195.25;;;23.59;53.04
62617;BME280;48692;51.190;6.808;2022-07-06T02:50:30;102200.59;;;23.58;53.18
62617;BME280;48692;51.190;6.808;2022-07-06T02:52:56;102208.59;;;23.56;53.24
62617;BME280;48692;51.190;6.808;2022-07-06T02:55:23;102203.28;;;23.56;53.14
62617;BME280;48692;51.190;6.808;2022-07-06T02:57:49;102209.56;;;23.54;53.23
62617;BME280;48692;51.190;6.808;2022-07-06T03:00:14;102211.31;;;23.55;53.03
62617;BME280;48692;51.190;6.808;2022-07-06T03:02:41;102220.16;;;23.54;53.14
62617;BME280;48692;51.190;6.808;2022-07-06T03:05:07;102217.56;;;23.52;53.05
62617;BME280;48692;51.190;6.808;2022-07-06T03:07:32;102222.91;;;23.51;53.13
62617;BME280;48692;51.190;6.808;2022-07-06T03:09:58;102222.09;;;23.48;53.46
62617;BME280;48692;51.190;6.808;2022-07-06T03:12:23;102232.69;;;23.48;53.08
62617;BME280;48692;51.190;6.808;2022-07-06T03:14:49;102226.50;;;23.48;53.34
62617;BME280;48692;51.190;6.808;2022-07-06T03:17:14;102223.94;;;23.46;53.26
62617;BME280;48692;51.190;6.808;2022-07-06T03:19:39;102231.00;;;23.46;53.33
62617;BME280;48692;51.190;6.808;2022-07-06T03:22:05;102229.22;;;23.46;53.24
62617;BME280;48692;51.190;6.808;2022-07-06T03:24:30;102231.06;;;23.44;53.60
62617;BME280;48692;51.190;6.808;2022-07-06T03:26:56;102238.09;;;23.45;53.31
62617;BME280;48692;51.190;6.808;2022-07-06T03:29:21;102239.03;;;23.43;53.19
62617;BME280;48692;51.190;6.808;2022-07-06T03:31:47;102229.31;;;23.43;53.22
62617;BME280;48692;51.190;6.808;2022-07-06T03:34:12;102231.16;;;23.41;53.64
62617;BME280;48692;51.190;6.808;2022-07-06T03:36:38;102231.16;;;23.41;53.47
62617;BME280;48692;51.190;6.808;2022-07-06T03:39:04;102238.19;;;23.42;53.21
62617;BME280;48692;51.190;6.808;2022-07-06T03:41:30;102234.72;;;23.40;53.64
62617;BME280;48692;51.190;6.808;2022-07-06T03:43:56;102235.56;;;23.41;53.46
62617;BME280;48692;51.190;6.808;2022-07-06T03:46:21;102232.09;;;23.39;53.30
62617;BME280;48692;51.190;6.808;2022-07-06T03:48:47;102236.50;;;23.40;53.17
62617;BME280;48692;51.190;6.808;2022-07-06T03:51:12;102233.03;;;23.38;53.35
62617;BME280;48692;51.190;6.808;2022-07-06T03:53:38;102238.38;;;23.36;53.30
62617;BME280;48692;51.190;6.808;2022-07-06T03:56:03;102236.59;;;23.37;53.37
62617;BME280;48692;51.190;6.808;2022-07-06T03:58:47;102233.94;;;23.37;53.59
62617;BME280;48692;51.190;6.808;2022-07-06T04:01:13;102238.41;;;23.34;53.69
62617;BME280;48692;51.190;6.808;2022-07-06T04:03:38;102240.22;;;23.34;53.08
62617;BME280;48692;51.190;6.808;2022-07-06T04:06:04;102241.06;;;23.34;53.36
62617;BME280;48692;51.190;6.808;2022-07-06T04:08:30;102234.91;;;23.34;53.75
62617;BME280;48692;51.190;6.808;2022-07-06T04:10:55;102235.84;;;23.33;53.59
62617;BME280;48692;51.190;6.808;2022-07-06T04:13:21;102242.03;;;23.32;53.62
62617;BME280;48692;51.190;6.808;2022-07-06T04:15:46;102238.47;;;23.33;53.59
62617;BME280;48692;51.190;6.808;2022-07-06T04:18:11;102235.88;;;23.31;53.93
62617;BME280;48692;51.190;6.808;2022-07-06T04:20:37;102230.56;;;23.31;53.83
62617;BME280;48692;51.190;6.808;2022-07-06T04:23:02;102235.00;;;23.31;53.55
62617;BME280;48692;51.190;6.808;2022-07-06T04:25:28;102239.50;;;23.29;53.72
62617;BME280;48692;51.190;6.808;2022-07-06T04:27:53;102241.25;;;23.28;53.40
62617;BME280;48692;51.190;6.808;2022-07-06T04:30:20;102235.97;;;23.28;53.78
62617;BME280;48692;51.190;6.808;2022-07-06T04:32:45;102238.66;;;23.27;53.85
62617;BME280;48692;51.190;6.808;2022-07-06T04:35:11;102247.53;;;23.26;53.63
62617;BME280;48692;51.190;6.808;2022-07-06T04:37:36;102243.97;;;23.27;53.42
62617;BME280;48692;51.190;6.808;2022-07-06T04:40:03;102243.09;;;23.26;53.88
62617;BME280;48692;51.190;6.808;2022-07-06T04:42:29;102245.78;;;23.25;53.87
62617;BME280;48692;51.190;6.808;2022-07-06T04:44:54;102243.19;;;23.23;53.83
62617;BME280;48692;51.190;6.808;2022-07-06T04:47:20;102248.44;;;23.25;53.57
62617;BME280;48692;51.190;6.808;2022-07-06T04:49:45;102254.66;;;23.24;53.42
62617;BME280;48692;51.190;6.808;2022-07-06T04:52:11;102247.59;;;23.23;53.59
62617;BME280;48692;51.190;6.808;2022-07-06T04:54:36;102239.66;;;23.23;53.90
62617;BME280;48692;51.190;6.808;2022-07-06T04:57:02;102238.78;;;23.22;53.40
62617;BME280;48692;51.190;6.808;2022-07-06T04:59:28;102241.41;;;23.24;53.60
62617;BME280;48692;51.190;6.808;2022-07-06T05:01:54;102240.53;;;23.23;53.36
62617;BME280;48692;51.190;6.808;2022-07-06T05:04:19;102244.06;;;23.24;53.89
62617;BME280;48692;51.190;6.808;2022-07-06T05:06:45;102247.59;;;23.23;53.73
62617;BME280;48692;51.190;6.808;2022-07-06T05:09:12;102245.78;;;23.25;53.66
62617;BME280;48692;51.190;6.808;2022-07-06T05:11:38;102247.53;;;23.26;53.60
62617;BME280;48692;51.190;6.808;2022-07-06T05:14:04;102240.50;;;23.25;53.63
62617;BME280;48692;51.190;6.808;2022-07-06T05:16:31;102248.44;;;23.25;53.52
62617;BME280;48692;51.190;6.808;2022-07-06T05:18:57;102248.38;;;23.26;53.85
62617;BME280;48692;51.190;6.808;2022-07-06T05:21:22;102244.00;;;23.25;53.53
62617;BME280;48692;51.190;6.808;2022-07-06T05:23:48;102247.47;;;23.27;53.74
62617;BME280;48692;51.190;6.808;2022-07-06T05:26:13;102246.63;;;23.27;53.48
62617;BME280;48692;51.190;6.808;2022-07-06T05:28:39;102246.63;;;23.27;53.72
62617;BME280;48692;51.190;6.808;2022-07-06T05:31:04;102252.81;;;23.26;53.47
62617;BME280;48692;51.190;6.808;2022-07-06T05:33:30;102254.56;;;23.27;53.60
62617;BME280;48692;51.190;6.808;2022-07-06T05:35:55;102256.28;;;23.28;53.25
62617;BME280;48692;51.190;6.808;2022-07-06T05:38:21;102258.97;;;23.26;53.27
62617;BME280;48692;51.190;6.808;2022-07-06T05:40:46;102258.06;;;23.27;53.26
62617;BME280;48692;51.190;6.808;2022-07-06T05:43:12;102258.94;;;23.28;53.56
62617;BME280;48692;51.190;6.808;2022-07-06T05:45:37;102253.66;;;23.28;53.61
62617;BME280;48692;51.190;6.808;2022-07-06T05:48:03;102257.16;;;23.28;53.48
62617;BME280;48692;51.190;6.808;2022-07-06T05:50:47;102255.38;;;23.29;53.51
62617;BME280;48692;51.190;6.808;2022-07-06T05:53:12;102262.44;;;23.28;53.66
62617;BME280;48692;51.190;6.808;2022-07-06T05:55:38;102264.25;;;23.28;53.33
62617;BME280;48692;51.190;6.808;2022-07-06T05:58:03;102259.84;;;23.27;53.72
62617;BME280;48692;51.190;6.808;2022-07-06T06:00:29;102265.16;;;23.27;53.58
62617;BME280;48692;51.190;6.808;2022-07-06T06:02:55;102265.09;;;23.28;53.30
62617;BME280;48692;51.190;6.808;2022-07-06T06:05:20;102266.88;;;23.28;53.22
62617;BME280;48692;51.190;6.808;2022-07-06T06:07:46;102267.78;;;23.27;53.29
62617;BME280;48692;51.190;6.808;2022-07-06T06:10:14;102265.09;;;23.28;53.51
62617;BME280;48692;51.190;6.808;2022-07-06T06:12:40;102270.34;;;23.30;53.09
62617;BME280;48692;51.190;6.808;2022-07-06T06:15:07;102268.63;;;23.29;53.48
62617;BME280;48692;51.190;6.808;2022-07-06T06:17:35;102274.75;;;23.29;53.43
62617;BME280;48692;51.190;6.808;2022-07-06T06:20:01;102273.91;;;23.29;53.61
62617;BME280;48692;51.190;6.808;2022-07-06T06:22:27;102274.72;;;23.31;53.16
62617;BME280;48692;51.190;6.808;2022-07-06T06:24:52;102271.19;;;23.30;53.45
62617;BME280;48692;51.190;6.808;2022-07-06T06:27:18;102276.50;;;23.30;53.53
62617;BME280;48692;51.190;6.808;2022-07-06T06:29:43;102274.72;;;23.31;53.09
62617;BME280;48692;51.190;6.808;2022-07-06T06:32:12;102268.53;;;23.32;53.61
62617;BME280;48692;51.190;6.808;2022-07-06T06:34:39;102270.28;;;23.31;53.37
62617;BME280;48692;51.190;6.808;2022-07-06T06:37:05;102272.00;;;23.34;53.53
62617;BME280;48692;51.190;6.808;2022-07-06T06:39:31;102280.75;;;23.36;53.62
62617;BME280;48692;51.190;6.808;2022-07-06T06:41:57;102269.28;;;23.36;53.23
62617;BME280;48692;51.190;6.808;2022-07-06T06:44:22;102278.09;;;23.36;53.53
62617;BME280;48692;51.190;6.808;2022-07-06T06:46:49;102279.78;;;23.39;53.44
62617;BME280;48692;51.190;6.808;2022-07-06T06:49:15;102278.00;;;23.39;53.11
62617;BME280;48692;51.190;6.808;2022-07-06T06:51:41;102278.81;;;23.41;53.27
62617;BME280;48692;51.190;6.808;2022-07-06T06:54:06;102283.25;;;23.41;53.05
62617;BME280;48692;51.190;6.808;2022-07-06T06:56:32;102285.84;;;23.42;53.39
62617;BME280;48692;51.190;6.808;2022-07-06T06:58:57;102284.03;;;23.44;52.91
62617;BME280;48692;51.190;6.808;2022-07-06T07:01:23;102286.59;;;23.46;53.01
62617;BME280;48692;51.190;6.808;2022-07-06T07:03:50;102289.16;;;23.49;52.75
62617;BME280;48692;51.190;6.808;2022-07-06T07:06:15;102292.69;;;23.49;52.64
62617;BME280;48692;51.190;6.808;2022-07-06T07:08:41;102298.00;;;23.49;53.19
62617;BME280;48692;51.190;6.808;2022-07-06T07:11:06;102290.91;;;23.50;52.48
62617;BME280;48692;51.190;6.808;2022-07-06T07:13:32;102289.13;;;23.51;52.45
62617;BME280;48692;51.190;6.808;2022-07-06T07:15:57;102289.13;;;23.51;52.42
62617;BME280;48692;51.190;6.808;2022-07-06T07:18:22;102295.28;;;23.51;52.81
62617;BME280;48692;51.190;6.808;2022-07-06T07:20:48;102292.63;;;23.51;53.00
62617;BME280;48692;51.190;6.808;2022-07-06T07:23:13;102301.38;;;23.55;52.87
62617;BME280;48692;51.190;6.808;2022-07-06T07:25:39;102295.25;;;23.53;52.64
62617;BME280;48692;51.190;6.808;2022-07-06T07:28:05;102296.88;;;23.57;52.77
62617;BME280;48692;51.190;6.808;2022-07-06T07:30:30;102293.41;;;23.55;52.37
62617;BME280;48692;51.190;6.808;2022-07-06T07:32:56;102299.53;;;23.57;52.37
62617;BME280;48692;51.190;6.808;2022-07-06T07:35:22;102290.66;;;23.58;52.57
62617;BME280;48692;51.190;6.808;2022-07-06T07:37:48;102303.84;;;23.59;52.50
62617;BME280;48692;51.190;6.808;2022-07-06T07:40:14;102302.09;;;23.60;52.23
62617;BME280;48692;51.190;6.808;2022-07-06T07:42:39;102302.13;;;23.58;52.27
62617;BME280;48692;51.190;6.808;2022-07-06T07:45:07;102300.28;;;23.60;52.26
62617;BME280;48692;51.190;6.808;2022-07-06T07:47:33;102307.31;;;23.61;52.71
62617;BME280;48692;51.190;6.808;2022-07-06T07:49:59;102310.84;;;23.62;51.79
62617;BME280;48692;51.190;6.808;2022-07-06T07:52:25;102304.63;;;23.63;52.20
62617;BME280;48692;51.190;6.808;2022-07-06T07:54:50;102308.13;;;23.63;52.48
62617;BME280;48692;51.190;6.808;2022-07-06T07:57:16;102308.09;;;23.65;52.31
62617;BME280;48692;51.190;6.808;2022-07-06T07:59:41;102312.47;;;23.66;52.14
62617;BME280;48692;51.190;6.808;2022-07-06T08:02:07;102307.19;;;23.66;51.62
62617;BME280;48692;51.190;6.808;2022-07-06T08:04:33;102307.13;;;23.68;52.61
62617;BME280;48692;51.190;6.808;2022-07-06T08:06:58;102311.56;;;23.67;52.22
62617;BME280;48692;51.190;6.808;2022-07-06T08:09:24;102304.38;;;23.71;51.84
62617;BME280;48692;51.190;6.808;2022-07-06T08:11:49;102302.59;;;23.71;51.60
62617;BME280;48692;51.190;6.808;2022-07-06T08:14:15;102299.03;;;23.72;51.86
62617;BME280;48692;51.190;6.808;2022-07-06T08:16:42;102297.22;;;23.74;51.87
62617;BME280;48692;51.190;6.808;2022-07-06T08:19:08;102302.50;;;23.74;51.98
62617;BME280;48692;51.190;6.808;2022-07-06T08:21:34;102291.00;;;23.75;52.22
62617;BME280;48692;51.190;6.808;2022-07-06T08:24:00;102292.66;;;23.78;52.10
62617;BME280;48692;51.190;6.808;2022-07-06T08:26:27;102295.28;;;23.80;51.91
62617;BME280;48692;51.190;6.808;2022-07-06T08:28:53;102301.31;;;23.83;51.03
62617;BME280;48692;51.190;6.808;2022-07-06T08:31:20;102295.16;;;23.83;51.45
62617;BME280;48692;51.190;6.808;2022-07-06T08:33:45;102285.41;;;23.83;51.29
62617;BME280;48692;51.190;6.808;2022-07-06T08:36:11;102296.78;;;23.87;51.31
62617;BME280;48692;51.190;6.808;2022-07-06T08:38:36;102283.41;;;23.90;51.13
62617;BME280;48692;51.190;6.808;2022-07-06T08:41:02;102286.88;;;23.92;51.32
62617;BME280;48692;51.190;6.808;2022-07-06T08:43:32;102289.44;;;23.95;51.00
62617;BME280;48692;51.190;6.808;2022-07-06T08:45:58;102294.63;;;23.98;51.17
62617;BME280;48692;51.190;6.808;2022-07-06T08:48:24;102286.69;;;24.00;49.74
62617;BME280;48692;51.190;6.808;2022-07-06T08:50:53;102285.69;;;24.02;49.23
62617;BME280;48692;51.190;6.808;2022-07-06T08:53:20;102291.88;;;24.03;48.97
62617;BME280;48692;51.190;6.808;2022-07-06T08:55:47;102289.16;;;24.04;49.51
62617;BME280;48692;51.190;6.808;2022-07-06T08:58:15;102290.88;;;24.05;49.33
62617;BME280;48692;51.190;6.808;2022-07-06T09:00:40;102289.94;;;24.08;49.92
62617;BME280;48692;51.190;6.808;2022-07-06T09:03:07;102297.81;;;24.10;49.16
62617;BME280;48692;51.190;6.808;2022-07-06T09:05:36;102292.50;;;24.10;49.78
62617;BME280;48692;51.190;6.808;2022-07-06T09:08:02;102295.13;;;24.11;48.73
62617;BME280;48692;51.190;6.808;2022-07-06T09:10:28;102301.28;;;24.12;49.73
62617;BME280;48692;51.190;6.808;2022-07-06T09:13:02;102299.53;;;24.11;49.03
62617;BME280;48692;51.190;6.808;2022-07-06T09:15:33;102296.91;;;24.11;49.85
62617;BME280;48692;51.190;6.808;2022-07-06T09:18:00;102299.53;;;24.11;49.04
62617;BME280;48692;51.190;6.808;2022-07-06T09:20:26;102297.72;;;24.13;49.58
62617;BME280;48692;51.190;6.808;2022-07-06T09:22:57;102295.94;;;24.13;49.31
62617;BME280;48692;51.190;6.808;2022-07-06T09:25:25;102288.84;;;24.14;49.01
62617;BME280;48692;51.190;6.808;2022-07-06T09:27:51;102282.63;;;24.15;48.29
62617;BME280;48692;51.190;6.808;2022-07-06T09:30:21;102285.16;;;24.18;49.21
62617;BME280;48692;51.190;6.808;2022-07-06T09:32:51;102284.31;;;24.17;48.49
62617;BME280;48692;51.190;6.808;2022-07-06T09:35:31;102282.50;;;24.18;48.40
62617;BME280;48692;51.190;6.808;2022-07-06T09:38:06;102283.28;;;24.21;49.29
62617;BME280;48692;51.190;6.808;2022-07-06T09:40:41;102277.91;;;24.23;47.61
62617;BME280;48692;51.190;6.808;2022-07-06T09:43:22;102278.72;;;24.25;47.13
62617;BME280;48692;51.190;6.808;2022-07-06T09:45:50;102282.25;;;24.26;48.36
62617;BME280;48692;51.190;6.808;2022-07-06T09:48:24;102282.19;;;24.27;46.68
62617;BME280;48692;51.190;6.808;2022-07-06T09:50:56;102274.22;;;24.27;46.51
62617;BME280;48692;51.190;6.808;2022-07-06T09:53:24;102283.88;;;24.30;47.92
62617;BME280;48692;51.190;6.808;2022-07-06T09:55:54;102281.16;;;24.31;47.80
62617;BME280;48692;51.190;6.808;2022-07-06T09:58:21;102281.06;;;24.34;47.40
62617;BME280;48692;51.190;6.808;2022-07-06T10:00:48;102281.88;;;24.36;46.80
62617;BME280;48692;51.190;6.808;2022-07-06T10:03:15;102279.09;;;24.40;47.41
62617;BME280;48692;51.190;6.808;2022-07-06T10:05:44;102272.78;;;24.44;49.30
62617;BME280;48692;51.190;6.808;2022-07-06T10:08:15;102266.53;;;24.45;48.59
62617;BME280;48692;51.190;6.808;2022-07-06T10:10:43;102274.50;;;24.45;49.26
62617;BME280;48692;51.190;6.808;2022-07-06T10:13:10;102274.38;;;24.48;49.23
62617;BME280;48692;51.190;6.808;2022-07-06T10:15:38;102273.47;;;24.49;49.54
62617;BME280;48692;51.190;6.808;2022-07-06T10:18:07;102270.78;;;24.50;49.55
62617;BME280;48692;51.190;6.808;2022-07-06T10:20:37;102273.34;;;24.52;48.49
62617;BME280;48692;51.190;6.808;2022-07-06T10:23:06;102276.81;;;24.54;48.87
62617;BME280;48692;51.190;6.808;2022-07-06T10:25:33;102270.59;;;24.55;48.81
62617;BME280;48692;51.190;6.808;2022-07-06T10:28:00;102273.13;;;24.58;48.40
62617;BME280;48692;51.190;6.808;2022-07-06T10:30:27;102274.00;;;24.59;48.22
62617;BME280;48692;51.190;6.808;2022-07-06T10:32:56;102269.44;;;24.62;49.12
62617;BME280;48692;51.190;6.808;2022-07-06T10:35:24;102272.97;;;24.63;48.88
62617;BME280;48692;51.190;6.808;2022-07-06T10:38:09;102271.06;;;24.66;49.58
62617;BME280;48692;51.190;6.808;2022-07-06T10:40:38;102274.41;;;24.72;48.83
62617;BME280;48692;51.190;6.808;2022-07-06T10:43:31;102281.50;;;24.73;48.63
62617;BME280;48692;51.190;6.808;2022-07-06T10:45:57;102273.47;;;24.74;48.27
62617;BME280;48692;51.190;6.808;2022-07-06T10:48:23;102273.38;;;24.77;48.23
62617;BME280;48692;51.190;6.808;2022-07-06T10:50:51;102277.75;;;24.78;48.87
62617;BME280;48692;51.190;6.808;2022-07-06T10:53:22;102275.03;;;24.80;49.12
62617;BME280;48692;51.190;6.808;2022-07-06T10:55:51;102265.22;;;24.82;48.67
62617;BME280;48692;51.190;6.808;2022-07-06T11:01:13;102272.13;;;24.86;48.60
62617;BME280;48692;51.190;6.808;2022-07-06T11:03:45;102261.41;;;24.89;48.11
62617;BME280;48692;51.190;6.808;2022-07-06T11:11:18;102257.84;;;24.90;49.09
62617;BME280;48692;51.190;6.808;2022-07-06T11:14:04;102266.72;;;24.89;48.01
62617;BME280;48692;51.190;6.808;2022-07-06T11:16:32;102268.41;;;24.92;48.97
62617;BME280;48692;51.190;6.808;2022-07-06T11:19:23;102268.09;;;25.00;48.81
62617;BME280;48692;51.190;6.808;2022-07-06T11:21:50;102259.97;;;25.04;47.50
62617;BME280;48692;51.190;6.808;2022-07-06T11:24:22;102254.59;;;25.06;47.98
62617;BME280;48692;51.190;6.808;2022-07-06T11:26:56;102253.78;;;25.04;48.93
62617;BME280;48692;51.190;6.808;2022-07-06T11:29:25;102248.34;;;25.07;48.70
62617;BME280;48692;51.190;6.808;2022-07-06T11:31:56;102251.09;;;25.05;48.58
62617;BME280;48692;51.190;6.808;2022-07-06T11:34:26;102260.81;;;25.05;48.41
62617;BME280;48692;51.190;6.808;2022-07-06T11:36:57;102261.75;;;25.04;48.60
62617;BME280;48692;51.190;6.808;2022-07-06T11:39:31;102262.56;;;25.06;48.65
62617;BME280;48692;51.190;6.808;2022-07-06T11:42:01;102261.59;;;25.08;48.55
62617;BME280;48692;51.190;6.808;2022-07-06T11:44:29;102256.28;;;25.08;48.98
62617;BME280;48692;51.190;6.808;2022-07-06T11:46:55;102259.84;;;25.07;48.48
62617;BME280;48692;51.190;6.808;2022-07-06T11:49:22;102259.66;;;25.12;48.58
62617;BME280;48692;51.190;6.808;2022-07-06T11:51:48;102253.31;;;25.16;47.99
62617;BME280;48692;51.190;6.808;2022-07-06T11:54:19;102258.50;;;25.19;48.27
62617;BME280;48692;51.190;6.808;2022-07-06T11:56:57;102251.31;;;25.21;48.40
62617;BME280;48692;51.190;6.808;2022-07-06T11:59:29;102257.41;;;25.25;47.39
62617;BME280;48692;51.190;6.808;2022-07-06T12:02:06;102248.66;;;25.21;47.67
62617;BME280;48692;51.190;6.808;2022-07-06T12:04:34;102254.78;;;25.23;48.11
62617;BME280;48692;51.190;6.808;2022-07-06T12:07:04;102246.78;;;25.25;48.39
62617;BME280;48692;51.190;6.808;2022-07-06T12:09:34;102249.47;;;25.23;48.23
62617;BME280;48692;51.190;6.808;2022-07-06T12:12:03;102246.00;;;25.21;48.51
62617;BME280;48692;51.190;6.808;2022-07-06T12:14:30;102249.47;;;25.23;48.05
62617;BME280;48692;51.190;6.808;2022-07-06T12:17:03;102244.28;;;25.20;48.29
62617;BME280;48692;51.190;6.808;2022-07-06T12:19:30;102237.31;;;25.18;48.77
62617;BME280;48692;51.190;6.808;2022-07-06T12:21:55;102238.25;;;25.17;48.85
62617;BME280;48692;51.190;6.808;2022-07-06T12:24:23;102236.50;;;25.16;49.11
62617;BME280;48692;51.190;6.808;2022-07-06T12:26:51;102230.28;;;25.17;48.20
62617;BME280;48692;51.190;6.808;2022-07-06T12:29:19;102222.34;;;25.15;48.92
62617;BME280;48692;51.190;6.808;2022-07-06T12:31:56;102220.63;;;25.14;48.64
62617;BME280;48692;51.190;6.808;2022-07-06T12:34:26;102222.25;;;25.18;48.70
62617;BME280;48692;51.190;6.808;2022-07-06T12:36:58;102217.69;;;25.22;48.78
62617;BME280;48692;51.190;6.808;2022-07-06T12:39:28;102220.25;;;25.23;48.51
62617;BME280;48692;51.190;6.808;2022-07-06T12:42:02;102215.75;;;25.25;48.78
62617;BME280;48692;51.190;6.808;2022-07-06T12:44:29;102208.59;;;25.28;48.67
62617;BME280;48692;51.190;6.808;2022-07-06T12:47:06;102205.94;;;25.28;48.26
62617;BME280;48692;51.190;6.808;2022-07-06T12:49:33;102209.47;;;25.28;48.40
62617;BME280;48692;51.190;6.808;2022-07-06T12:54:33;102196.09;;;25.30;48.26
62617;BME280;48692;51.190;6.808;2022-07-06T12:57:09;102198.16;;;25.23;48.40
62617;BME280;48692;51.190;6.808;2022-07-06T12:59:39;102198.88;;;25.27;48.84
62617;BME280;48692;51.190;6.808;2022-07-06T13:02:06;102205.94;;;25.28;47.23